sensor_id;sensor_type;location;lat;lon;timestamp;P1;durP1;ratioP1;P2;durP2;ratioP2
37459;SDS011;23318;50.966;5.284;2023-05-07T00:00:00;7.25;;;4.03;;
37459;SDS011;23318;50.966;5.284;2023-05-07T00:02:26;7.72;;;4.13;;
37459;SDS011;23318;50.966;5.284;2023-05-07T00:04:51;7.15;;;4.25;;
37459;SDS011;23318;50.966;5.284;2023-05-07T00:07:17;5.40;;;3.60;;
37459;SDS011;23318;50.966;5.284;2023-05-07T00:09:43;7.32;;;4.47;;
37459;SDS011;23318;50.966;5.284;2023-05-07T00:12:09;5.50;;;3.75;;
37459;SDS011;23318;50.966;5.284;2023-05-07T00:14:35;6.18;;;4.70;;
37459;SDS011;23318;50.966;5.284;2023-05-07T00:17:01;8.40;;;4.63;;
37459;SDS011;23318;50.966;5.284;2023-05-07T00:19:26;10.43;;;4.75;;
37459;SDS011;23318;50.966;5.284;2023-05-07T00:21:52;10.25;;;4.72;;
37459;SDS011;23318;50.966;5.284;2023-05-07T00:24:19;12.38;;;4.82;;
37459;SDS011;23318;50.966;5.284;2023-05-07T00:26:44;6.70;;;4.45;;
37459;SDS011;23318;50.966;5.284;2023-05-07T00:29:10;8.73;;;4.88;;
37459;SDS011;23318;50.966;5.284;2023-05-07T00:31:36;9.50;;;4.53;;
37459;SDS011;23318;50.966;5.284;2023-05-07T00:34:01;7.55;;;4.25;;
37459;SDS011;23318;50.966;5.284;2023-05-07T00:36:27;7.93;;;4.53;;
37459;SDS011;23318;50.966;5.284;2023-05-07T00:38:54;7.40;;;4.60;;
37459;SDS011;23318;50.966;5.284;2023-05-07T00:41:22;7.40;;;4.35;;
37459;SDS011;23318;50.966;5.284;2023-05-07T00:43:48;8.63;;;4.68;;
37459;SDS011;23318;50.966;5.284;2023-05-07T00:46:16;7.50;;;5.05;;
37459;SDS011;23318;50.966;5.284;2023-05-07T00:48:42;5.90;;;4.85;;
37459;SDS011;23318;50.966;5.284;2023-05-07T00:51:09;6.60;;;4.30;;
37459;SDS011;23318;50.966;5.284;2023-05-07T00:53:36;10.50;;;4.80;;
37459;SDS011;23318;50.966;5.284;2023-05-07T00:56:02;11.82;;;4.70;;
37459;SDS011;23318;50.966;5.284;2023-05-07T00:58:28;6.97;;;4.75;;
37459;SDS011;23318;50.966;5.284;2023-05-07T01:00:54;6.13;;;4.80;;
37459;SDS011;23318;50.966;5.284;2023-05-07T01:03:20;5.28;;;4.35;;
37459;SDS011;23318;50.966;5.284;2023-05-07T01:05:46;8.82;;;4.97;;
37459;SDS011;23318;50.966;5.284;2023-05-07T01:08:13;6.65;;;5.07;;
37459;SDS011;23318;50.966;5.284;2023-05-07T01:10:40;6.78;;;5.50;;
37459;SDS011;23318;50.966;5.284;2023-05-07T01:13:08;6.90;;;4.95;;
37459;SDS011;23318;50.966;5.284;2023-05-07T01:15:35;8.63;;;5.30;;
37459;SDS011;23318;50.966;5.284;2023-05-07T01:18:01;8.75;;;5.50;;
37459;SDS011;23318;50.966;5.284;2023-05-07T01:20:27;6.53;;;5.30;;
37459;SDS011;23318;50.966;5.284;2023-05-07T01:22:53;7.93;;;5.35;;
37459;SDS011;23318;50.966;5.284;2023-05-07T01:25:21;8.45;;;5.60;;
37459;SDS011;23318;50.966;5.284;2023-05-07T01:27:47;6.75;;;5.50;;
37459;SDS011;23318;50.966;5.284;2023-05-07T01:30:12;8.38;;;5.45;;
37459;SDS011;23318;50.966;5.284;2023-05-07T01:32:57;7.55;;;5.50;;
37459;SDS011;23318;50.966;5.284;2023-05-07T01:35:32;7.10;;;5.20;;
37459;SDS011;23318;50.966;5.284;2023-05-07T01:38:02;9.13;;;5.95;;
37459;SDS011;23318;50.966;5.284;2023-05-07T01:40:30;9.00;;;5.70;;
37459;SDS011;23318;50.966;5.284;2023-05-07T01:42:56;7.18;;;5.13;;
37459;SDS011;23318;50.966;5.284;2023-05-07T01:45:22;8.32;;;5.03;;
37459;SDS011;23318;50.966;5.284;2023-05-07T01:47:49;8.15;;;5.20;;
37459;SDS011;23318;50.966;5.284;2023-05-07T01:50:15;8.63;;;6.05;;
37459;SDS011;23318;50.966;5.284;2023-05-07T01:52:43;10.73;;;5.25;;
37459;SDS011;23318;50.966;5.284;2023-05-07T01:55:09;6.55;;;4.88;;
37459;SDS011;23318;50.966;5.284;2023-05-07T01:57:34;8.70;;;5.32;;
37459;SDS011;23318;50.966;5.284;2023-05-07T02:00:01;8.57;;;5.43;;
37459;SDS011;23318;50.966;5.284;2023-05-07T02:02:31;8.27;;;5.63;;
37459;SDS011;23318;50.966;5.284;2023-05-07T02:04:56;8.00;;;5.85;;
37459;SDS011;23318;50.966;5.284;2023-05-07T02:07:22;7.85;;;5.43;;
37459;SDS011;23318;50.966;5.284;2023-05-07T02:09:48;7.57;;;5.55;;
37459;SDS011;23318;50.966;5.284;2023-05-07T02:12:13;9.20;;;5.72;;
37459;SDS011;23318;50.966;5.284;2023-05-07T02:14:39;9.32;;;5.38;;
37459;SDS011;23318;50.966;5.284;2023-05-07T02:17:05;10.60;;;5.93;;
37459;SDS011;23318;50.966;5.284;2023-05-07T02:19:30;9.40;;;5.40;;
37459;SDS011;23318;50.966;5.284;2023-05-07T02:21:56;7.05;;;5.60;;
37459;SDS011;23318;50.966;5.284;2023-05-07T02:24:22;9.38;;;5.82;;
37459;SDS011;23318;50.966;5.284;2023-05-07T02:26:47;10.48;;;5.50;;
37459;SDS011;23318;50.966;5.284;2023-05-07T02:29:13;6.93;;;5.60;;
37459;SDS011;23318;50.966;5.284;2023-05-07T02:31:39;6.53;;;5.40;;
37459;SDS011;23318;50.966;5.284;2023-05-07T02:34:04;7.03;;;4.90;;
37459;SDS011;23318;50.966;5.284;2023-05-07T02:36:30;10.02;;;5.50;;
37459;SDS011;23318;50.966;5.284;2023-05-07T02:38:56;12.13;;;5.55;;
37459;SDS011;23318;50.966;5.284;2023-05-07T02:41:22;12.20;;;6.07;;
37459;SDS011;23318;50.966;5.284;2023-05-07T02:43:47;7.72;;;5.72;;
37459;SDS011;23318;50.966;5.284;2023-05-07T02:46:13;10.23;;;5.10;;
37459;SDS011;23318;50.966;5.284;2023-05-07T02:48:39;9.05;;;5.63;;
37459;SDS011;23318;50.966;5.284;2023-05-07T02:51:04;11.00;;;6.13;;
37459;SDS011;23318;50.966;5.284;2023-05-07T02:53:30;8.18;;;5.93;;
37459;SDS011;23318;50.966;5.284;2023-05-07T02:55:57;7.78;;;5.60;;
37459;SDS011;23318;50.966;5.284;2023-05-07T02:58:23;10.20;;;5.15;;
37459;SDS011;23318;50.966;5.284;2023-05-07T03:00:49;8.60;;;6.30;;
37459;SDS011;23318;50.966;5.284;2023-05-07T03:03:15;6.63;;;5.35;;
37459;SDS011;23318;50.966;5.284;2023-05-07T03:05:41;9.60;;;5.88;;
37459;SDS011;23318;50.966;5.284;2023-05-07T03:08:07;10.23;;;5.90;;
37459;SDS011;23318;50.966;5.284;2023-05-07T03:10:33;7.82;;;5.68;;
37459;SDS011;23318;50.966;5.284;2023-05-07T03:12:59;9.35;;;6.20;;
37459;SDS011;23318;50.966;5.284;2023-05-07T03:15:24;11.55;;;6.63;;
37459;SDS011;23318;50.966;5.284;2023-05-07T03:17:50;6.93;;;5.88;;
37459;SDS011;23318;50.966;5.284;2023-05-07T03:20:16;9.13;;;6.13;;
37459;SDS011;23318;50.966;5.284;2023-05-07T03:22:41;10.00;;;6.40;;
37459;SDS011;23318;50.966;5.284;2023-05-07T03:25:08;9.30;;;5.95;;
37459;SDS011;23318;50.966;5.284;2023-05-07T03:27:34;8.98;;;6.10;;
37459;SDS011;23318;50.966;5.284;2023-05-07T03:30:00;7.47;;;5.75;;
37459;SDS011;23318;50.966;5.284;2023-05-07T03:32:26;8.63;;;6.50;;
37459;SDS011;23318;50.966;5.284;2023-05-07T03:34:52;10.43;;;6.70;;
37459;SDS011;23318;50.966;5.284;2023-05-07T03:37:17;10.55;;;8.05;;
37459;SDS011;23318;50.966;5.284;2023-05-07T03:39:43;19.10;;;8.55;;
37459;SDS011;23318;50.966;5.284;2023-05-07T03:42:09;10.77;;;8.95;;
37459;SDS011;23318;50.966;5.284;2023-05-07T03:44:35;13.52;;;9.30;;
37459;SDS011;23318;50.966;5.284;2023-05-07T03:47:03;10.93;;;9.32;;
37459;SDS011;23318;50.966;5.284;2023-05-07T03:49:29;16.50;;;8.98;;
37459;SDS011;23318;50.966;5.284;2023-05-07T03:51:55;12.35;;;9.00;;
37459;SDS011;23318;50.966;5.284;2023-05-07T03:54:21;12.30;;;8.93;;
37459;SDS011;23318;50.966;5.284;2023-05-07T03:56:47;13.05;;;9.20;;
37459;SDS011;23318;50.966;5.284;2023-05-07T03:59:13;14.55;;;9.90;;
37459;SDS011;23318;50.966;5.284;2023-05-07T04:01:38;11.80;;;9.55;;
37459;SDS011;23318;50.966;5.284;2023-05-07T04:04:05;15.05;;;9.80;;
37459;SDS011;23318;50.966;5.284;2023-05-07T04:06:30;14.50;;;9.90;;
37459;SDS011;23318;50.966;5.284;2023-05-07T04:08:56;14.80;;;9.98;;
37459;SDS011;23318;50.966;5.284;2023-05-07T04:11:22;13.43;;;10.02;;
37459;SDS011;23318;50.966;5.284;2023-05-07T04:13:48;13.02;;;9.93;;
37459;SDS011;23318;50.966;5.284;2023-05-07T04:16:14;11.98;;;9.38;;
37459;SDS011;23318;50.966;5.284;2023-05-07T04:18:39;16.35;;;9.73;;
37459;SDS011;23318;50.966;5.284;2023-05-07T04:21:05;13.48;;;9.88;;
37459;SDS011;23318;50.966;5.284;2023-05-07T04:23:38;14.05;;;9.68;;
37459;SDS011;23318;50.966;5.284;2023-05-07T04:26:04;14.90;;;10.00;;
37459;SDS011;23318;50.966;5.284;2023-05-07T04:28:31;14.70;;;9.35;;
37459;SDS011;23318;50.966;5.284;2023-05-07T04:30:57;13.45;;;9.00;;
37459;SDS011;23318;50.966;5.284;2023-05-07T04:33:22;13.35;;;8.73;;
37459;SDS011;23318;50.966;5.284;2023-05-07T04:35:48;11.30;;;8.65;;
37459;SDS011;23318;50.966;5.284;2023-05-07T04:38:14;11.75;;;9.20;;
37459;SDS011;23318;50.966;5.284;2023-05-07T04:40:39;14.30;;;9.07;;
37459;SDS011;23318;50.966;5.284;2023-05-07T04:43:06;10.65;;;8.75;;
37459;SDS011;23318;50.966;5.284;2023-05-07T04:45:34;10.70;;;8.18;;
37459;SDS011;23318;50.966;5.284;2023-05-07T04:48:00;12.95;;;8.88;;
37459;SDS011;23318;50.966;5.284;2023-05-07T04:50:26;13.50;;;8.82;;
37459;SDS011;23318;50.966;5.284;2023-05-07T04:52:51;9.40;;;8.50;;
37459;SDS011;23318;50.966;5.284;2023-05-07T04:55:17;12.93;;;9.25;;
37459;SDS011;23318;50.966;5.284;2023-05-07T04:57:43;11.40;;;8.52;;
37459;SDS011;23318;50.966;5.284;2023-05-07T05:00:09;10.63;;;8.98;;
37459;SDS011;23318;50.966;5.284;2023-05-07T05:02:35;12.10;;;9.05;;
37459;SDS011;23318;50.966;5.284;2023-05-07T05:05:01;11.25;;;8.50;;
37459;SDS011;23318;50.966;5.284;2023-05-07T05:07:27;12.48;;;9.20;;
37459;SDS011;23318;50.966;5.284;2023-05-07T05:09:53;11.35;;;8.68;;
37459;SDS011;23318;50.966;5.284;2023-05-07T05:12:20;12.25;;;8.68;;
37459;SDS011;23318;50.966;5.284;2023-05-07T05:14:46;10.27;;;8.52;;
37459;SDS011;23318;50.966;5.284;2023-05-07T05:17:12;13.55;;;8.75;;
37459;SDS011;23318;50.966;5.284;2023-05-07T05:19:37;12.48;;;8.73;;
37459;SDS011;23318;50.966;5.284;2023-05-07T05:22:03;11.98;;;8.38;;
37459;SDS011;23318;50.966;5.284;2023-05-07T05:24:29;11.18;;;8.70;;
37459;SDS011;23318;50.966;5.284;2023-05-07T05:26:55;11.80;;;8.18;;
37459;SDS011;23318;50.966;5.284;2023-05-07T05:29:21;12.40;;;8.68;;
37459;SDS011;23318;50.966;5.284;2023-05-07T05:31:47;11.27;;;8.23;;
37459;SDS011;23318;50.966;5.284;2023-05-07T05:34:13;12.75;;;9.38;;
37459;SDS011;23318;50.966;5.284;2023-05-07T05:36:38;12.43;;;9.25;;
37459;SDS011;23318;50.966;5.284;2023-05-07T05:39:04;13.40;;;9.30;;
37459;SDS011;23318;50.966;5.284;2023-05-07T05:41:30;12.18;;;9.13;;
37459;SDS011;23318;50.966;5.284;2023-05-07T05:43:56;15.48;;;9.45;;
37459;SDS011;23318;50.966;5.284;2023-05-07T05:46:22;13.05;;;9.48;;
37459;SDS011;23318;50.966;5.284;2023-05-07T05:48:47;11.60;;;9.10;;
37459;SDS011;23318;50.966;5.284;2023-05-07T05:51:13;14.07;;;8.70;;
37459;SDS011;23318;50.966;5.284;2023-05-07T05:53:39;9.60;;;7.75;;
37459;SDS011;23318;50.966;5.284;2023-05-07T05:56:04;10.85;;;8.38;;
37459;SDS011;23318;50.966;5.284;2023-05-07T05:58:30;12.77;;;8.77;;
37459;SDS011;23318;50.966;5.284;2023-05-07T06:00:56;11.38;;;8.25;;
37459;SDS011;23318;50.966;5.284;2023-05-07T06:03:23;13.70;;;9.35;;
37459;SDS011;23318;50.966;5.284;2023-05-07T06:05:48;11.80;;;8.30;;
37459;SDS011;23318;50.966;5.284;2023-05-07T06:08:14;12.23;;;9.00;;
37459;SDS011;23318;50.966;5.284;2023-05-07T06:10:40;11.77;;;8.57;;
37459;SDS011;23318;50.966;5.284;2023-05-07T06:13:06;10.88;;;7.57;;
37459;SDS011;23318;50.966;5.284;2023-05-07T06:15:32;14.77;;;8.80;;
37459;SDS011;23318;50.966;5.284;2023-05-07T06:17:57;10.85;;;8.05;;
37459;SDS011;23318;50.966;5.284;2023-05-07T06:20:23;9.75;;;7.60;;
37459;SDS011;23318;50.966;5.284;2023-05-07T06:22:49;13.32;;;7.85;;
37459;SDS011;23318;50.966;5.284;2023-05-07T06:25:14;12.30;;;8.85;;
37459;SDS011;23318;50.966;5.284;2023-05-07T06:27:40;10.55;;;8.13;;
37459;SDS011;23318;50.966;5.284;2023-05-07T06:30:06;14.98;;;8.48;;
37459;SDS011;23318;50.966;5.284;2023-05-07T06:32:33;12.48;;;8.40;;
37459;SDS011;23318;50.966;5.284;2023-05-07T06:34:58;15.57;;;9.07;;
37459;SDS011;23318;50.966;5.284;2023-05-07T06:37:24;10.60;;;8.30;;
37459;SDS011;23318;50.966;5.284;2023-05-07T06:39:50;12.23;;;8.23;;
37459;SDS011;23318;50.966;5.284;2023-05-07T06:42:15;11.05;;;7.65;;
37459;SDS011;23318;50.966;5.284;2023-05-07T06:44:41;9.32;;;7.90;;
37459;SDS011;23318;50.966;5.284;2023-05-07T06:47:07;10.75;;;7.90;;
37459;SDS011;23318;50.966;5.284;2023-05-07T06:49:32;11.23;;;7.05;;
37459;SDS011;23318;50.966;5.284;2023-05-07T06:51:58;9.90;;;8.13;;
37459;SDS011;23318;50.966;5.284;2023-05-07T06:54:24;12.40;;;7.93;;
37459;SDS011;23318;50.966;5.284;2023-05-07T06:56:50;11.27;;;7.60;;
37459;SDS011;23318;50.966;5.284;2023-05-07T06:59:16;8.85;;;7.45;;
37459;SDS011;23318;50.966;5.284;2023-05-07T07:01:41;8.90;;;7.30;;
37459;SDS011;23318;50.966;5.284;2023-05-07T07:04:07;9.77;;;7.82;;
37459;SDS011;23318;50.966;5.284;2023-05-07T07:06:33;13.18;;;7.75;;
37459;SDS011;23318;50.966;5.284;2023-05-07T07:08:59;11.32;;;8.55;;
37459;SDS011;23318;50.966;5.284;2023-05-07T07:11:24;11.05;;;7.43;;
37459;SDS011;23318;50.966;5.284;2023-05-07T07:13:50;9.50;;;7.15;;
37459;SDS011;23318;50.966;5.284;2023-05-07T07:16:16;8.73;;;6.88;;
37459;SDS011;23318;50.966;5.284;2023-05-07T07:18:42;9.52;;;6.65;;
37459;SDS011;23318;50.966;5.284;2023-05-07T07:21:07;9.98;;;6.38;;
37459;SDS011;23318;50.966;5.284;2023-05-07T07:23:33;7.03;;;6.03;;
37459;SDS011;23318;50.966;5.284;2023-05-07T07:25:59;9.68;;;6.40;;
37459;SDS011;23318;50.966;5.284;2023-05-07T07:28:24;6.68;;;5.93;;
37459;SDS011;23318;50.966;5.284;2023-05-07T07:30:50;8.13;;;5.88;;
37459;SDS011;23318;50.966;5.284;2023-05-07T07:33:16;9.55;;;6.25;;
37459;SDS011;23318;50.966;5.284;2023-05-07T07:35:42;9.00;;;6.47;;
37459;SDS011;23318;50.966;5.284;2023-05-07T07:38:07;10.20;;;6.68;;
37459;SDS011;23318;50.966;5.284;2023-05-07T07:40:36;6.43;;;5.43;;
37459;SDS011;23318;50.966;5.284;2023-05-07T07:43:02;10.48;;;6.18;;
37459;SDS011;23318;50.966;5.284;2023-05-07T07:45:27;10.68;;;6.22;;
37459;SDS011;23318;50.966;5.284;2023-05-07T07:47:54;8.50;;;4.95;;
37459;SDS011;23318;50.966;5.284;2023-05-07T07:50:19;11.63;;;5.78;;
37459;SDS011;23318;50.966;5.284;2023-05-07T07:52:45;6.20;;;4.28;;
37459;SDS011;23318;50.966;5.284;2023-05-07T07:55:11;10.68;;;4.50;;
37459;SDS011;23318;50.966;5.284;2023-05-07T07:57:37;13.20;;;4.82;;
37459;SDS011;23318;50.966;5.284;2023-05-07T08:00:03;6.63;;;4.18;;
37459;SDS011;23318;50.966;5.284;2023-05-07T08:02:29;6.90;;;4.43;;
37459;SDS011;23318;50.966;5.284;2023-05-07T08:04:55;5.65;;;3.95;;
37459;SDS011;23318;50.966;5.284;2023-05-07T08:07:21;6.80;;;3.92;;
37459;SDS011;23318;50.966;5.284;2023-05-07T08:09:47;7.43;;;4.05;;
37459;SDS011;23318;50.966;5.284;2023-05-07T08:12:13;9.02;;;4.07;;
37459;SDS011;23318;50.966;5.284;2023-05-07T08:14:40;7.95;;;4.32;;
37459;SDS011;23318;50.966;5.284;2023-05-07T08:17:06;7.70;;;4.40;;
37459;SDS011;23318;50.966;5.284;2023-05-07T08:19:31;7.70;;;4.78;;
37459;SDS011;23318;50.966;5.284;2023-05-07T08:21:57;5.88;;;4.05;;
37459;SDS011;23318;50.966;5.284;2023-05-07T08:24:23;6.07;;;4.18;;
37459;SDS011;23318;50.966;5.284;2023-05-07T08:26:49;8.10;;;4.75;;
37459;SDS011;23318;50.966;5.284;2023-05-07T08:29:15;8.13;;;4.28;;
37459;SDS011;23318;50.966;5.284;2023-05-07T08:31:40;7.68;;;5.15;;
37459;SDS011;23318;50.966;5.284;2023-05-07T08:34:06;9.13;;;4.70;;
37459;SDS011;23318;50.966;5.284;2023-05-07T08:36:32;11.43;;;5.05;;
37459;SDS011;23318;50.966;5.284;2023-05-07T08:38:59;11.02;;;5.43;;
37459;SDS011;23318;50.966;5.284;2023-05-07T08:41:25;10.27;;;5.18;;
37459;SDS011;23318;50.966;5.284;2023-05-07T08:43:50;5.63;;;4.43;;
37459;SDS011;23318;50.966;5.284;2023-05-07T08:46:17;7.65;;;4.88;;
37459;SDS011;23318;50.966;5.284;2023-05-07T08:48:45;7.45;;;4.72;;
37459;SDS011;23318;50.966;5.284;2023-05-07T08:51:13;9.25;;;5.35;;
37459;SDS011;23318;50.966;5.284;2023-05-07T08:53:41;7.55;;;4.90;;
37459;SDS011;23318;50.966;5.284;2023-05-07T08:56:08;7.85;;;5.72;;
37459;SDS011;23318;50.966;5.284;2023-05-07T08:58:34;9.50;;;5.20;;
37459;SDS011;23318;50.966;5.284;2023-05-07T09:01:01;8.40;;;5.22;;
37459;SDS011;23318;50.966;5.284;2023-05-07T09:03:37;8.90;;;4.95;;
37459;SDS011;23318;50.966;5.284;2023-05-07T09:06:04;9.52;;;5.63;;
37459;SDS011;23318;50.966;5.284;2023-05-07T09:08:32;8.07;;;4.90;;
37459;SDS011;23318;50.966;5.284;2023-05-07T09:10:58;8.30;;;5.18;;
37459;SDS011;23318;50.966;5.284;2023-05-07T09:13:24;8.77;;;5.82;;
37459;SDS011;23318;50.966;5.284;2023-05-07T09:15:49;7.53;;;5.00;;
37459;SDS011;23318;50.966;5.284;2023-05-07T09:18:15;10.05;;;5.65;;
37459;SDS011;23318;50.966;5.284;2023-05-07T09:20:41;8.38;;;5.70;;
37459;SDS011;23318;50.966;5.284;2023-05-07T09:23:07;11.52;;;5.63;;
37459;SDS011;23318;50.966;5.284;2023-05-07T09:25:33;8.38;;;5.82;;
37459;SDS011;23318;50.966;5.284;2023-05-07T09:28:00;8.95;;;5.82;;
37459;SDS011;23318;50.966;5.284;2023-05-07T09:30:31;8.90;;;5.60;;
37459;SDS011;23318;50.966;5.284;2023-05-07T09:32:58;8.95;;;6.07;;
37459;SDS011;23318;50.966;5.284;2023-05-07T09:35:25;10.38;;;5.03;;
37459;SDS011;23318;50.966;5.284;2023-05-07T09:37:54;7.75;;;5.70;;
37459;SDS011;23318;50.966;5.284;2023-05-07T09:40:25;9.70;;;5.80;;
37459;SDS011;23318;50.966;5.284;2023-05-07T09:42:53;7.45;;;5.68;;
37459;SDS011;23318;50.966;5.284;2023-05-07T09:45:25;9.50;;;5.80;;
37459;SDS011;23318;50.966;5.284;2023-05-07T09:47:56;10.93;;;4.93;;
37459;SDS011;23318;50.966;5.284;2023-05-07T09:50:29;8.60;;;4.90;;
37459;SDS011;23318;50.966;5.284;2023-05-07T09:53:01;9.95;;;5.15;;
37459;SDS011;23318;50.966;5.284;2023-05-07T09:55:28;8.68;;;4.50;;
37459;SDS011;23318;50.966;5.284;2023-05-07T09:57:54;9.43;;;4.90;;
37459;SDS011;23318;50.966;5.284;2023-05-07T10:00:20;7.65;;;4.68;;
37459;SDS011;23318;50.966;5.284;2023-05-07T10:02:48;6.78;;;4.75;;
37459;SDS011;23318;50.966;5.284;2023-05-07T10:05:16;9.23;;;5.35;;
37459;SDS011;23318;50.966;5.284;2023-05-07T10:07:46;8.30;;;5.45;;
37459;SDS011;23318;50.966;5.284;2023-05-07T10:10:12;9.93;;;5.32;;
37459;SDS011;23318;50.966;5.284;2023-05-07T10:12:40;19.73;;;5.88;;
37459;SDS011;23318;50.966;5.284;2023-05-07T10:15:07;9.02;;;5.22;;
37459;SDS011;23318;50.966;5.284;2023-05-07T10:17:35;9.68;;;5.18;;
37459;SDS011;23318;50.966;5.284;2023-05-07T10:20:03;11.77;;;5.43;;
37459;SDS011;23318;50.966;5.284;2023-05-07T10:22:33;13.13;;;6.45;;
37459;SDS011;23318;50.966;5.284;2023-05-07T10:25:04;9.52;;;6.05;;
37459;SDS011;23318;50.966;5.284;2023-05-07T10:27:39;15.65;;;6.63;;
37459;SDS011;23318;50.966;5.284;2023-05-07T10:33:11;12.70;;;6.38;;
37459;SDS011;23318;50.966;5.284;2023-05-07T10:35:43;15.13;;;7.20;;
37459;SDS011;23318;50.966;5.284;2023-05-07T10:38:11;13.93;;;7.25;;
37459;SDS011;23318;50.966;5.284;2023-05-07T10:40:37;15.20;;;7.00;;
37459;SDS011;23318;50.966;5.284;2023-05-07T10:43:03;10.85;;;6.05;;
37459;SDS011;23318;50.966;5.284;2023-05-07T10:45:30;13.98;;;6.53;;
37459;SDS011;23318;50.966;5.284;2023-05-07T10:50:44;13.95;;;7.05;;
37459;SDS011;23318;50.966;5.284;2023-05-07T10:55:51;13.32;;;6.18;;
37459;SDS011;23318;50.966;5.284;2023-05-07T10:58:37;12.38;;;6.13;;
37459;SDS011;23318;50.966;5.284;2023-05-07T11:01:02;11.68;;;5.60;;
37459;SDS011;23318;50.966;5.284;2023-05-07T11:03:28;13.13;;;5.38;;
37459;SDS011;23318;50.966;5.284;2023-05-07T11:08:52;13.95;;;4.88;;
37459;SDS011;23318;50.966;5.284;2023-05-07T11:11:18;9.25;;;4.93;;
37459;SDS011;23318;50.966;5.284;2023-05-07T11:13:48;11.10;;;5.35;;
37459;SDS011;23318;50.966;5.284;2023-05-07T11:16:20;14.70;;;5.68;;
37459;SDS011;23318;50.966;5.284;2023-05-07T11:18:50;11.10;;;5.22;;
37459;SDS011;23318;50.966;5.284;2023-05-07T11:24:03;10.23;;;5.38;;
37459;SDS011;23318;50.966;5.284;2023-05-07T11:26:31;13.63;;;5.72;;
37459;SDS011;23318;50.966;5.284;2023-05-07T11:29:20;10.63;;;5.30;;
37459;SDS011;23318;50.966;5.284;2023-05-07T11:31:50;13.35;;;6.00;;
37459;SDS011;23318;50.966;5.284;2023-05-07T11:34:22;9.60;;;5.72;;
37459;SDS011;23318;50.966;5.284;2023-05-07T11:36:49;12.70;;;6.07;;
37459;SDS011;23318;50.966;5.284;2023-05-07T11:39:24;12.90;;;5.88;;
37459;SDS011;23318;50.966;5.284;2023-05-07T11:41:51;15.63;;;7.20;;
37459;SDS011;23318;50.966;5.284;2023-05-07T11:44:17;15.35;;;7.38;;
37459;SDS011;23318;50.966;5.284;2023-05-07T11:46:43;14.07;;;6.43;;
37459;SDS011;23318;50.966;5.284;2023-05-07T11:49:09;11.75;;;6.25;;
37459;SDS011;23318;50.966;5.284;2023-05-07T11:51:35;9.80;;;5.63;;
37459;SDS011;23318;50.966;5.284;2023-05-07T11:54:03;12.25;;;5.97;;
37459;SDS011;23318;50.966;5.284;2023-05-07T11:56:29;11.30;;;6.47;;
37459;SDS011;23318;50.966;5.284;2023-05-07T11:58:58;12.95;;;5.45;;
37459;SDS011;23318;50.966;5.284;2023-05-07T12:01:24;14.27;;;6.30;;
37459;SDS011;23318;50.966;5.284;2023-05-07T12:03:50;15.38;;;6.40;;
37459;SDS011;23318;50.966;5.284;2023-05-07T12:06:16;13.07;;;6.63;;
37459;SDS011;23318;50.966;5.284;2023-05-07T12:08:42;13.23;;;6.28;;
37459;SDS011;23318;50.966;5.284;2023-05-07T12:11:11;17.02;;;7.53;;
37459;SDS011;23318;50.966;5.284;2023-05-07T12:13:40;13.95;;;6.22;;
37459;SDS011;23318;50.966;5.284;2023-05-07T12:16:06;13.13;;;6.95;;
37459;SDS011;23318;50.966;5.284;2023-05-07T12:18:33;10.57;;;6.15;;
37459;SDS011;23318;50.966;5.284;2023-05-07T12:21:00;13.48;;;6.82;;
37459;SDS011;23318;50.966;5.284;2023-05-07T12:23:26;11.57;;;6.65;;
37459;SDS011;23318;50.966;5.284;2023-05-07T12:25:52;10.32;;;6.72;;
37459;SDS011;23318;50.966;5.284;2023-05-07T12:28:18;16.80;;;6.93;;
37459;SDS011;23318;50.966;5.284;2023-05-07T12:30:45;14.93;;;7.32;;
37459;SDS011;23318;50.966;5.284;2023-05-07T12:33:14;9.43;;;5.85;;
37459;SDS011;23318;50.966;5.284;2023-05-07T12:35:42;16.83;;;7.05;;
37459;SDS011;23318;50.966;5.284;2023-05-07T12:38:12;12.18;;;6.20;;
37459;SDS011;23318;50.966;5.284;2023-05-07T12:40:40;8.98;;;5.20;;
37459;SDS011;23318;50.966;5.284;2023-05-07T12:43:07;14.70;;;5.68;;
37459;SDS011;23318;50.966;5.284;2023-05-07T12:45:40;12.35;;;6.32;;
37459;SDS011;23318;50.966;5.284;2023-05-07T12:48:07;13.35;;;5.63;;
37459;SDS011;23318;50.966;5.284;2023-05-07T12:50:35;13.90;;;5.50;;
37459;SDS011;23318;50.966;5.284;2023-05-07T12:53:00;11.48;;;5.45;;
37459;SDS011;23318;50.966;5.284;2023-05-07T12:55:31;10.00;;;5.13;;
37459;SDS011;23318;50.966;5.284;2023-05-07T12:58:00;17.27;;;4.32;;
37459;SDS011;23318;50.966;5.284;2023-05-07T13:00:36;8.98;;;3.90;;
37459;SDS011;23318;50.966;5.284;2023-05-07T13:03:03;10.07;;;4.38;;
37459;SDS011;23318;50.966;5.284;2023-05-07T13:05:28;7.93;;;4.35;;
37459;SDS011;23318;50.966;5.284;2023-05-07T13:07:57;9.65;;;4.00;;
37459;SDS011;23318;50.966;5.284;2023-05-07T13:10:23;6.32;;;3.35;;
37459;SDS011;23318;50.966;5.284;2023-05-07T13:12:49;7.72;;;4.65;;
37459;SDS011;23318;50.966;5.284;2023-05-07T13:15:16;8.88;;;4.60;;
37459;SDS011;23318;50.966;5.284;2023-05-07T13:17:42;6.85;;;3.55;;
37459;SDS011;23318;50.966;5.284;2023-05-07T13:20:08;8.13;;;3.33;;
37459;SDS011;23318;50.966;5.284;2023-05-07T13:22:35;9.98;;;3.78;;
37459;SDS011;23318;50.966;5.284;2023-05-07T13:25:01;8.48;;;2.97;;
37459;SDS011;23318;50.966;5.284;2023-05-07T13:27:26;6.03;;;3.22;;
37459;SDS011;23318;50.966;5.284;2023-05-07T13:29:52;8.05;;;3.63;;
37459;SDS011;23318;50.966;5.284;2023-05-07T13:32:18;8.50;;;3.88;;
37459;SDS011;23318;50.966;5.284;2023-05-07T13:34:43;8.05;;;3.78;;
37459;SDS011;23318;50.966;5.284;2023-05-07T13:37:09;6.00;;;2.72;;
37459;SDS011;23318;50.966;5.284;2023-05-07T13:39:35;9.52;;;3.10;;
37459;SDS011;23318;50.966;5.284;2023-05-07T13:42:01;5.70;;;2.65;;
37459;SDS011;23318;50.966;5.284;2023-05-07T13:44:27;8.30;;;3.58;;
37459;SDS011;23318;50.966;5.284;2023-05-07T13:46:52;8.63;;;3.58;;
37459;SDS011;23318;50.966;5.284;2023-05-07T13:49:18;6.15;;;3.35;;
37459;SDS011;23318;50.966;5.284;2023-05-07T13:51:44;9.02;;;3.53;;
37459;SDS011;23318;50.966;5.284;2023-05-07T13:54:10;6.15;;;3.83;;
37459;SDS011;23318;50.966;5.284;2023-05-07T13:56:36;8.48;;;3.33;;
37459;SDS011;23318;50.966;5.284;2023-05-07T13:59:02;8.07;;;3.72;;
37459;SDS011;23318;50.966;5.284;2023-05-07T14:01:28;7.60;;;2.88;;
37459;SDS011;23318;50.966;5.284;2023-05-07T14:03:53;9.10;;;4.20;;
37459;SDS011;23318;50.966;5.284;2023-05-07T14:06:20;7.65;;;3.13;;
37459;SDS011;23318;50.966;5.284;2023-05-07T14:08:46;7.28;;;3.50;;
37459;SDS011;23318;50.966;5.284;2023-05-07T14:11:12;7.35;;;2.53;;
37459;SDS011;23318;50.966;5.284;2023-05-07T14:13:38;3.58;;;1.98;;
37459;SDS011;23318;50.966;5.284;2023-05-07T14:16:03;6.43;;;2.42;;
37459;SDS011;23318;50.966;5.284;2023-05-07T14:18:29;8.63;;;2.63;;
37459;SDS011;23318;50.966;5.284;2023-05-07T14:20:55;5.25;;;2.53;;
37459;SDS011;23318;50.966;5.284;2023-05-07T14:23:21;6.00;;;3.15;;
37459;SDS011;23318;50.966;5.284;2023-05-07T14:25:51;7.07;;;3.50;;
37459;SDS011;23318;50.966;5.284;2023-05-07T14:28:17;7.85;;;3.13;;
37459;SDS011;23318;50.966;5.284;2023-05-07T14:30:43;5.95;;;2.67;;
37459;SDS011;23318;50.966;5.284;2023-05-07T14:33:09;7.38;;;2.58;;
37459;SDS011;23318;50.966;5.284;2023-05-07T14:35:34;7.20;;;3.13;;
37459;SDS011;23318;50.966;5.284;2023-05-07T14:38:00;6.03;;;2.35;;
37459;SDS011;23318;50.966;5.284;2023-05-07T14:40:26;3.45;;;2.17;;
37459;SDS011;23318;50.966;5.284;2023-05-07T14:42:52;7.68;;;2.55;;
37459;SDS011;23318;50.966;5.284;2023-05-07T14:45:17;5.60;;;2.13;;
37459;SDS011;23318;50.966;5.284;2023-05-07T14:47:43;4.63;;;2.55;;
37459;SDS011;23318;50.966;5.284;2023-05-07T14:50:09;5.80;;;2.47;;